CheckWX is a tool to help pilots better visualize weather data.  It is not intended as a substitute for an official pre-flight weather briefing.

00:30:16 UTC

RPLB METAR
Subic Bay International Airport
Olongapo City, Philippines
Current

30 mins ago

RPLB 170000Z 23010KT 170V260 9000 -RA BKN016 OVC070 26/24 Q1007 RMK A2974
Observed
Sep-17 @ 00:00 UTC
Wind
  • 230° at 10 KTS
Visibility
9,000 meters
Flight Rules
MVFR
Conditions
Light Rain
Cloud Levels
  • Broken at 1,600' AGL
  • Overcast at 7,000' AGL
Temperature
26°C / 79°F
Dewpoint
24°C / 75°F
Humidity
89%
Altimeter
29.73" Hg
Pressure
1006.92 hPa
Previous

2 hours ago

RPLB 162300Z 16007KT 4000 +RA BKN016 OVC070 25/24 Q1006 RMK A2971
Observed
Sep-16 @ 23:00 UTC
Wind
  • 160° at 7 KTS
Visibility
4,000 meters
Flight Rules
IFR
Conditions
Heavy Rain
Cloud Levels
  • Broken at 1,600' AGL
  • Overcast at 7,000' AGL
Temperature
25°C / 77°F
Dewpoint
24°C / 75°F
Humidity
94%
Altimeter
29.7" Hg
Pressure
1005.92 hPa
Previous

3 hours ago

RPLB 162200Z VRB03KT 6000 RA BKN016 OVC070 25/24 Q1006 RMK A2971
Observed
Sep-16 @ 22:00 UTC
Wind
  • Variable at 3 KTS
Visibility
6,000 meters
Flight Rules
MVFR
Conditions
Rain
Cloud Levels
  • Broken at 1,600' AGL
  • Overcast at 7,000' AGL
Temperature
25°C / 77°F
Dewpoint
24°C / 75°F
Humidity
94%
Altimeter
29.7" Hg
Pressure
1005.92 hPa